createdAt,value
2019-04-07T00:00:57.016Z,28.50
2019-04-07T00:03:25.835Z,27.45
2019-04-07T00:05:54.982Z,31.52
2019-04-07T00:08:23.795Z,30.57
2019-04-07T00:10:52.844Z,27.77
2019-04-07T00:13:21.670Z,30.05
2019-04-07T00:15:51.044Z,29.57
2019-04-07T00:18:20.358Z,31.15
2019-04-07T00:20:49.607Z,28.75
2019-04-07T00:23:18.408Z,30.25
2019-04-07T00:25:47.949Z,29.18
2019-04-07T00:28:17.206Z,28.38
2019-04-07T00:30:46.033Z,31.75
2019-04-07T00:33:15.300Z,31.68
2019-04-07T00:35:45.928Z,29.70
2019-04-07T00:38:15.050Z,28.47
2019-04-07T00:40:43.859Z,27.52
2019-04-07T00:43:13.627Z,31.73
2019-04-07T00:45:42.616Z,29.15
2019-04-07T00:48:11.390Z,28.25
2019-04-07T00:50:40.727Z,28.83
2019-04-07T00:53:09.834Z,29.92
2019-04-07T00:55:38.876Z,28.30
2019-04-07T00:58:08.275Z,28.75
2019-04-07T01:00:38.950Z,29.57
2019-04-07T01:03:08.345Z,27.27
2019-04-07T01:05:40.512Z,31.00
2019-04-07T01:08:07.646Z,28.17
2019-04-07T01:10:36.899Z,29.12
2019-04-07T01:13:06.544Z,27.10
2019-04-07T01:15:35.295Z,28.57
2019-04-07T01:18:04.270Z,31.23
2019-04-07T01:20:33.511Z,28.57
2019-04-07T01:23:02.839Z,29.45
2019-04-07T01:25:31.659Z,28.50
2019-04-07T01:28:00.805Z,28.05
2019-04-07T01:30:30.414Z,28.80
2019-04-07T01:32:59.971Z,29.50
2019-04-07T01:35:28.889Z,28.42
2019-04-07T01:37:58.258Z,28.95
2019-04-07T01:40:27.227Z,31.30
2019-04-07T01:43:03.351Z,32.67
2019-04-07T01:45:55.554Z,28.25
2019-04-07T01:48:40.211Z,28.35
2019-04-07T01:51:18.531Z,27.22
2019-04-07T01:54:00.862Z,27.02
2019-04-07T01:56:39.994Z,28.83
2019-04-07T01:59:26.658Z,29.15
2019-04-07T02:02:18.945Z,27.67
2019-04-07T02:05:06.864Z,26.85
2019-04-07T02:08:07.753Z,25.62
2019-04-07T02:10:46.032Z,27.15
2019-04-07T02:13:31.607Z,28.92
2019-04-07T02:16:18.366Z,27.77
2019-04-07T02:19:09.655Z,26.12
2019-04-07T02:22:06.938Z,26.12
2019-04-07T02:24:45.215Z,26.48
2019-04-07T02:27:25.726Z,27.90
2019-04-07T02:30:10.156Z,28.57
2019-04-07T02:33:10.743Z,27.02
2019-04-07T02:35:54.545Z,28.10
2019-04-07T02:38:29.534Z,28.52
2019-04-07T02:41:04.440Z,29.85
2019-04-07T02:43:42.381Z,25.10
2019-04-07T02:46:20.387Z,25.15
2019-04-07T02:49:01.876Z,27.35
2019-04-07T02:51:50.104Z,25.10
2019-04-07T02:54:36.759Z,26.45
2019-04-07T02:57:24.604Z,27.98
2019-04-07T03:00:12.570Z,27.07
2019-04-07T03:03:09.309Z,23.67
2019-04-07T03:06:06.863Z,24.55
2019-04-07T03:08:44.079Z,23.22
2019-04-07T03:11:21.239Z,25.43
2019-04-07T03:14:09.072Z,29.48
2019-04-07T03:16:51.634Z,24.90
2019-04-07T03:19:39.517Z,26.12
2019-04-07T03:22:33.457Z,24.12
2019-04-07T03:25:13.143Z,25.37
2019-04-07T03:28:14.059Z,25.02
2019-04-07T03:30:56.639Z,25.45
2019-04-07T03:33:37.885Z,24.80
2019-04-07T03:36:30.243Z,24.63
2019-04-07T03:39:11.993Z,24.70
2019-04-07T03:41:49.358Z,23.35
2019-04-07T03:44:41.053Z,25.40
2019-04-07T03:47:32.457Z,28.95
2019-04-07T03:50:07.295Z,24.20
2019-04-07T03:52:46.775Z,21.75
2019-04-07T03:55:33.442Z,23.45
2019-04-07T03:58:27.140Z,25.32
2019-04-07T04:01:13.583Z,23.60
2019-04-07T04:03:53.563Z,22.95
2019-04-07T04:06:39.095Z,25.85
2019-04-07T04:09:16.053Z,23.70
2019-04-07T04:11:52.101Z,24.60
2019-04-07T04:14:26.204Z,21.15
2019-04-07T04:16:55.308Z,21.85
2019-04-07T04:19:24.852Z,23.80
2019-04-07T04:21:54.380Z,22.75
2019-04-07T04:24:23.182Z,24.85
2019-04-07T04:26:52.112Z,22.98
2019-04-07T04:29:20.880Z,22.65
2019-04-07T04:31:49.797Z,25.10
2019-04-07T04:34:19.260Z,25.43
2019-04-07T04:36:48.371Z,25.02
2019-04-07T04:39:18.773Z,25.02
2019-04-07T04:41:47.646Z,24.65
2019-04-07T04:44:16.685Z,22.00
2019-04-07T04:46:45.487Z,25.72
2019-04-07T04:49:15.097Z,25.10
2019-04-07T04:51:44.394Z,23.50
2019-04-07T04:54:13.288Z,23.92
2019-04-07T04:56:42.470Z,26.50
2019-04-07T04:59:12.842Z,26.10
2019-04-07T05:01:42.251Z,25.30
2019-04-07T05:04:11.487Z,22.37
2019-04-07T05:06:41.227Z,24.75
2019-04-07T05:09:10.184Z,25.23
2019-04-07T05:11:38.964Z,23.73
2019-04-07T05:14:08.859Z,22.67
2019-04-07T05:16:37.752Z,24.18
2019-04-07T05:19:06.576Z,22.10
2019-04-07T05:21:35.367Z,22.10
2019-04-07T05:24:04.772Z,20.08
2019-04-07T05:26:33.572Z,19.70
2019-04-07T05:29:02.650Z,22.02
2019-04-07T05:31:32.080Z,19.92
2019-04-07T05:34:01.955Z,19.98
2019-04-07T05:36:31.359Z,21.87
2019-04-07T05:39:00.819Z,18.27
2019-04-07T05:41:30.465Z,21.12
2019-04-07T05:43:59.842Z,20.02
2019-04-07T05:46:28.591Z,19.20
2019-04-07T05:48:57.566Z,18.80
2019-04-07T05:51:29.936Z,18.73
2019-04-07T05:53:57.147Z,20.40
2019-04-07T05:56:28.080Z,19.67
2019-04-07T05:58:57.132Z,21.05
2019-04-07T06:01:26.733Z,22.00
2019-04-07T06:03:56.605Z,21.87
2019-04-07T06:06:25.891Z,20.27
2019-04-07T06:08:55.105Z,18.52
2019-04-07T06:11:24.704Z,17.82
2019-04-07T06:13:53.933Z,17.32
2019-04-07T06:16:23.752Z,16.90
2019-04-07T06:18:52.795Z,19.02
2019-04-07T06:21:22.176Z,16.82
2019-04-07T06:23:55.398Z,19.90
2019-04-07T06:26:22.217Z,16.77
2019-04-07T06:28:57.020Z,18.55
2019-04-07T06:31:24.514Z,17.82
2019-04-07T06:33:54.922Z,15.58
2019-04-07T06:36:26.024Z,15.30
2019-04-07T06:38:55.273Z,15.50
2019-04-07T06:41:30.113Z,13.70
2019-04-07T06:44:08.198Z,14.70
2019-04-07T06:46:43.689Z,15.35
2019-04-07T06:49:27.585Z,13.78
2019-04-07T06:52:05.806Z,13.85
2019-04-07T06:55:00.179Z,12.63
2019-04-07T06:57:52.638Z,11.95
2019-04-07T07:00:49.160Z,11.73
2019-04-07T07:03:33.652Z,11.13
2019-04-07T07:06:09.056Z,12.90
2019-04-07T07:08:47.473Z,13.20
2019-04-07T07:11:54.001Z,11.90
2019-04-07T07:14:44.971Z,13.60
2019-04-07T07:17:29.084Z,14.00
2019-04-07T07:20:15.732Z,14.23
2019-04-07T07:22:55.024Z,14.83
2019-04-07T07:28:53.055Z,14.43
2019-04-07T07:31:25.247Z,13.03
2019-04-07T07:33:52.843Z,12.63
2019-04-07T07:36:22.796Z,12.67
2019-04-07T07:38:59.855Z,13.33
2019-04-07T07:41:24.204Z,12.80
2019-04-07T07:43:54.755Z,11.57
2019-04-07T07:46:23.913Z,11.63
2019-04-07T07:48:57.133Z,13.03
2019-04-07T07:51:23.651Z,13.53
2019-04-07T07:53:56.576Z,12.77
2019-04-07T07:56:24.444Z,12.87
2019-04-07T07:58:53.813Z,12.23
2019-04-07T08:01:23.366Z,12.73
2019-04-07T08:03:54.655Z,13.43
2019-04-07T08:06:23.996Z,11.70
2019-04-07T08:08:53.635Z,11.27
2019-04-07T08:11:22.900Z,12.63
2019-04-07T08:13:52.485Z,11.23
2019-04-07T08:16:21.655Z,12.20
2019-04-07T08:18:51.040Z,10.57
2019-04-07T08:21:20.437Z,11.20
2019-04-07T08:23:49.327Z,10.07
2019-04-07T08:26:18.291Z,12.00
2019-04-07T08:28:48.131Z,9.50
2019-04-07T08:31:21.121Z,11.07
2019-04-07T08:33:50.346Z,10.97
2019-04-07T08:36:19.365Z,11.90
2019-04-07T08:38:52.358Z,13.10
2019-04-07T08:41:19.020Z,13.33
2019-04-07T08:43:48.374Z,12.43
2019-04-07T08:46:17.237Z,12.03
2019-04-07T08:48:49.712Z,12.13
2019-04-07T08:51:16.440Z,12.00
2019-04-07T08:53:45.170Z,12.70
2019-04-07T08:56:14.161Z,11.83
2019-04-07T08:58:42.910Z,14.00
2019-04-07T09:01:12.163Z,13.53
2019-04-07T09:03:43.913Z,13.47
2019-04-07T09:06:11.890Z,13.93
2019-04-07T09:08:41.000Z,14.23
2019-04-07T09:11:12.929Z,13.40
2019-04-07T09:13:44.425Z,15.53
2019-04-07T09:16:31.254Z,14.30
2019-04-07T09:19:22.516Z,11.33
2019-04-07T09:22:08.307Z,14.80
2019-04-07T09:25:06.313Z,14.80
2019-04-07T09:27:39.945Z,13.80
2019-04-07T09:30:26.226Z,14.13
2019-04-07T09:33:16.000Z,12.23
2019-04-07T09:36:07.976Z,14.50
2019-04-07T09:38:43.203Z,14.63
2019-04-07T09:41:30.625Z,16.17
2019-04-07T09:44:10.241Z,13.80
2019-04-07T09:47:02.047Z,15.00
2019-04-07T09:49:52.549Z,15.07
2019-04-07T09:52:49.057Z,15.73
2019-04-07T09:55:35.652Z,14.73
2019-04-07T09:58:12.950Z,16.80
2019-04-07T10:00:59.627Z,15.23
2019-04-07T10:03:39.807Z,14.80
2019-04-07T10:06:22.593Z,15.80
2019-04-07T10:09:12.903Z,16.27
2019-04-07T10:11:59.198Z,13.20
2019-04-07T10:14:46.544Z,15.40
2019-04-07T10:17:23.222Z,13.57
2019-04-07T10:20:08.590Z,18.37
2019-04-07T10:22:54.138Z,16.10
2019-04-07T10:25:41.273Z,15.10
2019-04-07T10:28:21.114Z,14.10
2019-04-07T10:31:07.748Z,13.87
2019-04-07T10:34:08.233Z,14.50
2019-04-07T10:36:53.635Z,15.60
2019-04-07T10:39:28.543Z,13.30
2019-04-07T10:42:15.195Z,13.47
2019-04-07T10:45:01.875Z,13.70
2019-04-07T10:47:51.114Z,14.97
2019-04-07T10:50:42.670Z,14.80
2019-04-07T10:53:22.691Z,14.23
2019-04-07T10:56:02.446Z,12.63
2019-04-07T10:58:49.128Z,15.13
2019-04-07T11:01:36.340Z,13.50
2019-04-07T11:04:44.001Z,14.10
2019-04-07T11:07:34.984Z,15.10
2019-04-07T11:10:15.870Z,17.30
2019-04-07T11:12:54.892Z,16.20
2019-04-07T11:15:36.208Z,14.40
2019-04-07T11:18:28.600Z,15.97
2019-04-07T11:21:22.699Z,15.90
2019-04-07T11:24:13.681Z,17.40
2019-04-07T11:26:55.067Z,13.40
2019-04-07T11:29:51.721Z,13.83
2019-04-07T11:32:27.181Z,14.50
2019-04-07T11:35:17.071Z,14.30
2019-04-07T11:37:57.201Z,13.30
2019-04-07T11:40:47.691Z,12.93
2019-04-07T11:43:25.801Z,13.27
2019-04-07T11:46:02.966Z,13.77
2019-04-07T11:48:48.250Z,15.27
2019-04-07T11:51:24.247Z,14.73
2019-04-07T11:54:01.494Z,15.10
2019-04-07T11:56:36.116Z,13.67
2019-04-07T11:59:24.819Z,13.70
2019-04-07T12:01:59.780Z,15.07
2019-04-07T12:04:47.920Z,13.97
2019-04-07T12:07:35.584Z,14.77
2019-04-07T12:10:17.900Z,14.87
2019-04-07T12:13:10.781Z,15.37
2019-04-07T12:15:58.049Z,14.93
2019-04-07T12:18:59.153Z,15.27
2019-04-07T12:21:42.013Z,15.60
2019-04-07T12:24:25.855Z,14.77
2019-04-07T12:27:16.143Z,13.77
2019-04-07T12:30:05.802Z,13.43
2019-04-07T12:32:55.189Z,16.57
2019-04-07T12:35:40.577Z,14.70
2019-04-07T12:38:32.645Z,15.00
2019-04-07T12:41:20.440Z,17.30
2019-04-07T12:43:55.146Z,17.00
2019-04-07T12:46:42.320Z,17.33
2019-04-07T12:49:26.395Z,17.37
2019-04-07T12:52:15.214Z,18.00
2019-04-07T12:54:50.351Z,20.17
2019-04-07T12:57:47.766Z,17.80
2019-04-07T13:00:25.812Z,16.90
2019-04-07T13:03:23.304Z,17.57
2019-04-07T13:06:07.587Z,17.77
2019-04-07T13:08:58.212Z,18.20
2019-04-07T13:11:38.663Z,17.70
2019-04-07T13:14:25.684Z,16.77
2019-04-07T13:17:15.978Z,19.30
2019-04-07T13:20:05.156Z,17.70
2019-04-07T13:22:51.897Z,18.77
2019-04-07T13:25:37.452Z,17.37
2019-04-07T13:28:12.501Z,19.70
2019-04-07T13:30:59.351Z,16.73
2019-04-07T13:33:48.360Z,17.80
2019-04-07T13:36:30.284Z,17.00
2019-04-07T13:39:09.943Z,18.73
2019-04-07T13:41:55.238Z,20.87
2019-04-07T13:44:29.449Z,22.67
2019-04-07T13:47:18.889Z,17.73
2019-04-07T13:50:10.530Z,18.13
2019-04-07T13:52:53.980Z,18.87
2019-04-07T13:55:44.162Z,18.00
2019-04-07T13:58:34.366Z,18.20
2019-04-07T14:01:31.311Z,17.30
2019-04-07T14:04:20.263Z,20.10
2019-04-07T14:06:56.631Z,22.20
2019-04-07T14:09:36.400Z,22.27
2019-04-07T14:12:14.064Z,20.47
2019-04-07T14:15:19.315Z,19.97
2019-04-07T14:18:05.863Z,18.70
2019-04-07T14:20:40.960Z,20.60
2019-04-07T14:23:17.539Z,21.50
2019-04-07T14:26:01.348Z,22.30
2019-04-07T14:28:48.385Z,20.27
2019-04-07T14:31:37.923Z,21.23
2019-04-07T14:34:24.284Z,21.40
2019-04-07T14:37:16.330Z,21.77
2019-04-07T14:40:09.600Z,18.20
2019-04-07T14:42:55.205Z,21.27
2019-04-07T14:45:44.544Z,20.20
2019-04-07T14:48:32.544Z,19.40
2019-04-07T14:51:10.046Z,19.17
2019-04-07T14:53:47.456Z,20.53
2019-04-07T14:56:46.734Z,19.10
2019-04-07T14:59:38.417Z,19.33
2019-04-07T15:02:07.943Z,24.90
2019-04-07T15:04:43.908Z,18.50
2019-04-07T15:07:32.449Z,19.37
2019-04-07T15:10:09.782Z,18.70
2019-04-07T15:12:52.417Z,19.07
2019-04-07T15:15:23.649Z,19.33
2019-04-07T15:17:54.432Z,20.30
2019-04-07T15:20:23.878Z,19.67
2019-04-07T15:22:52.865Z,18.17
2019-04-07T15:25:22.995Z,21.07
2019-04-07T15:27:53.577Z,19.13
2019-04-07T15:30:22.313Z,19.00
2019-04-07T15:32:51.585Z,20.87
2019-04-07T15:35:21.270Z,21.73
2019-04-07T15:37:51.887Z,18.97
2019-04-07T15:40:24.633Z,18.50
2019-04-07T15:42:55.712Z,18.77
2019-04-07T15:45:24.569Z,20.67
2019-04-07T15:47:54.043Z,19.90
2019-04-07T15:50:30.373Z,19.30
2019-04-07T15:52:59.582Z,20.03
2019-04-07T15:55:43.197Z,19.70
2019-04-07T15:57:59.667Z,19.03
2019-04-07T16:00:32.358Z,17.77
2019-04-07T16:03:00.034Z,18.30
2019-04-07T16:05:28.972Z,19.40
2019-04-07T16:07:58.095Z,20.60
2019-04-07T16:10:31.313Z,19.80
2019-04-07T16:13:02.643Z,22.17
2019-04-07T16:15:32.772Z,22.23
2019-04-07T16:18:05.458Z,20.73
2019-04-07T16:20:40.077Z,23.47
2019-04-07T16:23:08.256Z,21.83
2019-04-07T16:25:41.802Z,19.67
2019-04-07T16:28:14.410Z,20.70
2019-04-07T16:30:42.941Z,23.30
2019-04-07T16:33:15.226Z,22.20
2019-04-07T16:35:52.789Z,21.07
2019-04-07T16:38:22.775Z,23.57
2019-04-07T16:40:51.591Z,23.07
2019-04-07T16:43:20.594Z,21.27
2019-04-07T16:45:54.722Z,20.77
2019-04-07T16:48:26.338Z,21.57
2019-04-07T16:50:57.280Z,22.43
2019-04-07T16:53:30.867Z,21.90
2019-04-07T16:56:05.518Z,21.70
2019-04-07T16:58:39.864Z,21.73
2019-04-07T17:01:10.996Z,23.43
2019-04-07T17:03:39.851Z,20.60
2019-04-07T17:06:11.137Z,21.63
2019-04-07T17:08:40.447Z,21.87
2019-04-07T17:11:09.659Z,22.57
2019-04-07T17:13:44.182Z,22.93
2019-04-07T17:16:22.137Z,22.13
2019-04-07T17:18:49.930Z,21.13
2019-04-07T17:21:27.709Z,21.30
2019-04-07T17:24:00.285Z,20.83
2019-04-07T17:26:35.376Z,20.40
2019-04-07T17:29:03.255Z,21.30
2019-04-07T17:31:38.193Z,22.57
2019-04-07T17:34:14.027Z,23.60
2019-04-07T17:36:43.532Z,24.70
2019-04-07T17:39:40.381Z,22.77
2019-04-07T17:42:12.948Z,23.37
2019-04-07T17:44:56.317Z,22.90
2019-04-07T17:47:49.764Z,22.23
2019-04-07T17:50:34.519Z,23.33
2019-04-07T17:53:21.447Z,22.30
2019-04-07T17:56:30.332Z,21.90
2019-04-07T17:59:09.361Z,21.40
2019-04-07T18:01:47.031Z,22.77
2019-04-07T18:04:51.873Z,21.63
2019-04-07T18:07:37.883Z,20.90
2019-04-07T18:10:29.381Z,20.93
2019-04-07T18:13:25.073Z,21.20
2019-04-07T18:16:17.139Z,21.20
2019-04-07T18:19:08.746Z,21.50
2019-04-07T18:21:58.008Z,22.67
2019-04-07T18:24:53.438Z,21.27
2019-04-07T18:27:27.857Z,21.70
2019-04-07T18:30:16.420Z,21.75
2019-04-07T18:33:01.633Z,23.37
2019-04-07T18:35:42.052Z,20.53
2019-04-07T18:38:26.331Z,20.85
2019-04-07T18:41:34.038Z,22.93
2019-04-07T18:44:25.121Z,21.77
2019-04-07T18:47:22.731Z,22.87
2019-04-07T18:50:22.110Z,23.20
2019-04-07T18:53:07.107Z,21.10
2019-04-07T18:56:09.752Z,22.73
2019-04-07T18:59:11.703Z,23.40
2019-04-07T19:02:04.990Z,22.02
2019-04-07T19:04:41.190Z,24.40
2019-04-07T19:07:49.686Z,22.30
2019-04-07T19:10:34.493Z,21.20
2019-04-07T19:13:15.899Z,23.40
2019-04-07T19:15:57.862Z,23.77
2019-04-07T19:18:45.187Z,25.47
2019-04-07T19:21:24.725Z,24.18
2019-04-07T19:24:16.777Z,24.07
2019-04-07T19:27:17.271Z,24.27
2019-04-07T19:30:01.632Z,25.00
2019-04-07T19:32:54.308Z,25.83
2019-04-07T19:35:41.232Z,25.70
2019-04-07T19:38:33.462Z,27.47
2019-04-07T19:41:29.352Z,27.20
2019-04-07T19:44:33.711Z,30.83
2019-04-07T19:47:08.423Z,29.10
2019-04-07T19:50:17.079Z,28.17
2019-04-07T19:53:09.986Z,25.17
2019-04-07T19:55:56.561Z,26.23
2019-04-07T19:58:37.302Z,25.17
2019-04-07T20:01:25.546Z,24.63
2019-04-07T20:04:12.920Z,22.90
2019-04-07T20:07:07.068Z,25.97
2019-04-07T20:09:55.166Z,24.05
2019-04-07T20:12:56.658Z,25.10
2019-04-07T20:15:42.063Z,24.18
2019-04-07T20:18:26.523Z,26.02
2019-04-07T20:21:08.499Z,23.83
2019-04-07T20:23:43.754Z,23.18
2019-04-07T20:26:51.867Z,25.62
2019-04-07T20:32:37.378Z,23.32
2019-04-07T20:35:27.227Z,25.70
2019-04-07T20:38:08.961Z,24.20
2019-04-07T20:40:45.769Z,25.65
2019-04-07T20:43:23.429Z,22.93
2019-04-07T20:46:02.460Z,24.75
2019-04-07T20:48:41.459Z,25.50
2019-04-07T20:51:22.126Z,24.40
2019-04-07T20:54:25.849Z,24.20
2019-04-07T20:57:02.900Z,26.20
2019-04-07T20:59:56.457Z,24.82
2019-04-07T21:02:43.331Z,24.00
2019-04-07T21:05:30.824Z,24.20
2019-04-07T21:08:15.497Z,27.32
2019-04-07T21:11:13.591Z,25.08
2019-04-07T21:13:53.204Z,26.42
2019-04-07T21:16:40.082Z,25.70
2019-04-07T21:19:38.591Z,26.60
2019-04-07T21:22:31.361Z,27.58
2019-04-07T21:25:16.751Z,24.32
2019-04-07T21:27:50.596Z,26.30
2019-04-07T21:30:48.400Z,27.17
2019-04-07T21:33:34.962Z,27.67
2019-04-07T21:36:12.398Z,29.30
2019-04-07T21:38:58.979Z,25.88
2019-04-07T21:41:46.355Z,28.15
2019-04-07T21:44:26.910Z,29.57
2019-04-07T21:47:04.295Z,27.40
2019-04-07T21:49:45.971Z,28.05
2019-04-07T21:52:43.053Z,29.63
2019-04-07T21:55:37.186Z,27.58
2019-04-07T21:58:34.219Z,26.77
2019-04-07T22:01:11.279Z,29.85
2019-04-07T22:03:49.686Z,27.90
2019-04-07T22:06:34.206Z,27.50
2019-04-07T22:09:14.773Z,28.32
2019-04-07T22:11:43.319Z,29.48
2019-04-07T22:14:12.486Z,28.15
2019-04-07T22:16:41.363Z,30.90
2019-04-07T22:19:13.412Z,28.67
2019-04-07T22:21:40.716Z,30.43
2019-04-07T22:24:09.535Z,30.55
2019-04-07T22:26:38.736Z,27.73
2019-04-07T22:29:07.850Z,31.25
2019-04-07T22:31:46.123Z,29.35
2019-04-07T22:34:15.225Z,28.87
2019-04-07T22:36:47.033Z,32.58
2019-04-07T22:39:14.506Z,29.18
2019-04-07T22:41:44.246Z,28.65
2019-04-07T22:44:13.385Z,30.95
2019-04-07T22:46:42.227Z,29.45
2019-04-07T22:49:11.900Z,32.85
2019-04-07T22:51:44.730Z,29.45
2019-04-07T22:54:12.005Z,30.12
2019-04-07T22:56:41.024Z,30.52
2019-04-07T22:59:10.451Z,32.45
2019-04-07T23:01:40.957Z,32.85
2019-04-07T23:04:10.833Z,29.40
2019-04-07T23:06:40.395Z,31.90
2019-04-07T23:09:09.959Z,31.50
2019-04-07T23:11:39.746Z,31.97
2019-04-07T23:14:09.397Z,32.15
2019-04-07T23:16:38.365Z,33.80
2019-04-07T23:19:07.182Z,31.10
2019-04-07T23:21:36.171Z,30.45
2019-04-07T23:24:05.479Z,34.92
2019-04-07T23:26:34.387Z,34.92
2019-04-07T23:29:03.722Z,33.35
2019-04-07T23:31:34.223Z,31.52
2019-04-07T23:34:03.055Z,30.60
2019-04-07T23:36:32.000Z,33.88
2019-04-07T23:39:01.600Z,35.65
2019-04-07T23:41:30.410Z,32.78
2019-04-07T23:43:59.175Z,33.20
2019-04-07T23:46:28.525Z,34.50
2019-04-07T23:48:58.131Z,33.33
2019-04-07T23:51:27.509Z,34.63
2019-04-07T23:54:12.663Z,34.30
2019-04-07T23:56:43.672Z,36.25
2019-04-07T23:59:12.854Z,31.27
